Decoded Metar for KTKI (MCKINNEY in TX, USA) (IATA:TKI) | Meteo·Mobile Aviation Weather
aviador You're here:

KTKI Decoded Metar

MCKINNEY in TX, USA
Report Time2019-02-22 04:14:00
UTC Time2019-02-22 04:45:25
Flight Rules mvfr MVFR
Wind010° at 04 kt
W.Decomp.*RWY 36: 4.0 kt HW 0.5 kt RCW
W.Rank010° ranks 11
Current wind is below 010° avg. (7.9)
Visibility9999 m
Phenomena:N/A
Clouds:Overcast 014 Hf
Expected CloudBase > 800 ft AGL from Temp-Dew spread
Ceiling1,400 ft
Temp08°C (ISA -6)
Dew Point06°C (87% RH)
AAT5.6°C
QNH1017 hPa
Density Alt-118 ft
Elevation587 ft
Report Wrong Elevation
Raw Report
KTKI 220414Z AUTO 01004KT 10SM OVC014 08/06 A3004 RMK AO2
T00830056=

Extra information for KTKI:More info

Metar Taf Metar & Taf Last 4 Metars F.Rules Stats Wind Profile Meteogram Temp Stats Airport Information Weather charts Add Link Nearby VenuesMetar ALERT Operation Metar Decoded Social comments

AIRNAV info for KTKI